Time;durP1;ratioP1;P1;durP2;ratioP2;P2;SDS_P1;SDS_P2;PMS_P1;PMS_P2;Temp;Humidity;BMP_temperature;BMP_pressure;BME280_temperature;BME280_humidity;BME280_pressure;Samples;Min_cycle;Max_cycle;Signal;HPM_P1;HPM_P2
2022/11/05 00:10:04;;;;;;;;;;;20.30;69.30;;;;;;5034629;28;802;-70
2022/11/05 00:17:58;;;;;;;;;;;20.30;69.40;;;;;;5037253;28;828;-70
2022/11/05 00:20:23;;;;;;;;;;;20.30;69.40;;;;;;5039991;28;931;-69
2022/11/05 00:25:33;;;;;;;;;;;20.30;69.40;;;;;;5043434;28;1244;-70
2022/11/05 00:28:02;;;;;;;;;;;20.30;69.40;;;;;;5039956;28;886;-71
2022/11/05 00:30:28;;;;;;;;;;;20.30;69.40;;;;;;5041249;28;986;-70
2022/11/05 00:32:55;;;;;;;;;;;20.30;69.40;;;;;;5021500;28;1478;-70
2022/11/05 00:35:20;;;;;;;;;;;20.30;69.40;;;;;;5019959;28;1914;-69
2022/11/05 00:37:46;;;;;;;;;;;20.30;69.50;;;;;;5018518;28;852;-70
2022/11/05 00:40:11;;;;;;;;;;;20.30;69.50;;;;;;5040367;28;1014;-69
2022/11/05 00:45:27;;;;;;;;;;;20.30;69.50;;;;;;5039930;28;1374;-70
2022/11/05 00:50:37;;;;;;;;;;;20.30;69.50;;;;;;5041383;28;715;-70
2022/11/05 00:53:03;;;;;;;;;;;20.30;69.50;;;;;;5043976;28;933;-70
2022/11/05 00:55:29;;;;;;;;;;;20.30;69.50;;;;;;5053357;28;1902;-71
2022/11/05 00:57:55;;;;;;;;;;;20.30;70.30;;;;;;5020942;28;785;-70
2022/11/05 01:00:22;;;;;;;;;;;20.30;69.50;;;;;;5019789;28;812;-70
2022/11/05 01:02:47;;;;;;;;;;;20.30;69.50;;;;;;5019410;28;852;-71
2022/11/05 01:05:13;;;;;;;;;;;20.30;69.50;;;;;;5038301;28;1254;-70
2022/11/05 01:07:38;;;;;;;;;;;20.30;69.60;;;;;;5038260;28;785;-71
2022/11/05 01:10:04;;;;;;;;;;;20.30;69.60;;;;;;5037793;28;1096;-70
2022/11/05 01:12:29;;;;;;;;;;;20.30;69.60;;;;;;5039162;28;831;-70
2022/11/05 01:14:55;;;;;;;;;;;20.30;69.60;;;;;;5034102;28;1910;-71
2022/11/05 01:17:20;;;;;;;;;;;20.30;69.60;;;;;;5037219;28;892;-71
2022/11/05 01:19:46;;;;;;;;;;;20.30;69.60;;;;;;5038255;28;768;-71
2022/11/05 01:22:11;;;;;;;;;;;20.30;69.60;;;;;;5055251;28;1987;-70
2022/11/05 01:24:37;;;;;;;;;;;20.30;69.70;;;;;;5036345;28;1097;-71
2022/11/05 01:27:02;;;;;;;;;;;20.30;69.60;;;;;;5036709;28;1355;-71
2022/11/05 01:29:27;;;;;;;;;;;20.30;69.60;;;;;;5040124;28;883;-71
2022/11/05 01:31:53;;;;;;;;;;;20.30;69.60;;;;;;5037849;28;1457;-70
2022/11/05 01:34:18;;;;;;;;;;;20.30;69.70;;;;;;5037482;28;1949;-70
2022/11/05 01:36:44;;;;;;;;;;;20.30;69.70;;;;;;5036665;28;1355;-69
2022/11/05 01:39:09;;;;;;;;;;;20.30;69.70;;;;;;5038280;28;942;-70
2022/11/05 01:41:35;;;;;;;;;;;20.30;69.70;;;;;;5038633;28;986;-71
2022/11/05 01:44:00;;;;;;;;;;;20.30;69.70;;;;;;5038467;28;1088;-70
2022/11/05 01:46:26;;;;;;;;;;;20.30;69.70;;;;;;5038253;28;1348;-71
2022/11/05 01:48:52;;;;;;;;;;;20.30;69.70;;;;;;5018685;28;903;-70
2022/11/05 01:51:18;;;;;;;;;;;20.30;69.70;;;;;;5020396;28;1061;-71
2022/11/05 01:53:51;;;;;;;;;;;20.30;69.70;;;;;;5037891;28;1977;-71
2022/11/05 01:56:17;;;;;;;;;;;20.30;69.70;;;;;;5018900;28;1328;-70
2022/11/05 01:58:47;;;;;;;;;;;20.30;69.70;;;;;;5020801;28;872;-70
2022/11/05 02:01:13;;;;;;;;;;;20.30;69.80;;;;;;5022175;28;892;-70
2022/11/05 02:03:38;;;;;;;;;;;20.30;69.80;;;;;;5038818;28;835;-70
2022/11/05 02:06:08;;;;;;;;;;;20.20;69.70;;;;;;5035935;28;1247;-71
2022/11/05 02:08:35;;;;;;;;;;;20.30;69.80;;;;;;5033754;28;848;-70
2022/11/05 02:11:01;;;;;;;;;;;20.30;69.80;;;;;;5018438;28;942;-71
2022/11/05 02:13:26;;;;;;;;;;;20.30;69.80;;;;;;5054037;28;1890;-70
2022/11/05 02:15:58;;;;;;;;;;;20.20;69.70;;;;;;5040580;28;1279;-70
2022/11/05 02:18:27;;;;;;;;;;;20.30;69.80;;;;;;5025882;28;813;-71
2022/11/05 02:20:57;;;;;;;;;;;20.30;69.80;;;;;;5024517;28;1042;-71
2022/11/05 02:23:22;;;;;;;;;;;20.30;69.80;;;;;;5023662;28;851;-71
2022/11/05 02:26:06;;;;;;;;;;;20.20;69.80;;;;;;5039836;28;1224;-70
2022/11/05 02:28:40;;;;;;;;;;;20.30;69.80;;;;;;5041635;28;811;-70
2022/11/05 02:31:09;;;;;;;;;;;20.30;69.80;;;;;;5041303;28;875;-70
2022/11/05 02:33:39;;;;;;;;;;;20.30;69.90;;;;;;5038774;28;1898;-70
2022/11/05 02:36:40;;;;;;;;;;;20.20;69.80;;;;;;5021729;28;1280;-71
2022/11/05 02:39:21;;;;;;;;;;;20.20;69.80;;;;;;5002778;28;1128;-70
2022/11/05 02:41:56;;;;;;;;;;;20.20;69.90;;;;;;5032627;28;1354;-71
2022/11/05 02:44:22;;;;;;;;;;;20.20;69.80;;;;;;5040879;28;803;-71
2022/11/05 02:46:50;;;;;;;;;;;20.20;69.90;;;;;;5042254;28;1362;-70
2022/11/05 02:49:34;;;;;;;;;;;20.20;69.90;;;;;;5039638;28;931;-70
2022/11/05 02:52:01;;;;;;;;;;;20.20;69.80;;;;;;5042466;28;1017;-71
2022/11/05 02:54:32;;;;;;;;;;;20.20;69.90;;;;;;5020809;28;1902;-70
2022/11/05 02:56:57;;;;;;;;;;;20.20;69.90;;;;;;5021299;28;1327;-70
2022/11/05 02:59:23;;;;;;;;;;;20.20;69.90;;;;;;5040979;28;1005;-70
2022/11/05 03:01:48;;;;;;;;;;;20.20;69.90;;;;;;5040754;28;875;-71
2022/11/05 03:04:15;;;;;;;;;;;20.20;70.00;;;;;;5040051;28;935;-71
2022/11/05 03:06:44;;;;;;;;;;;20.20;69.90;;;;;;5020674;28;1259;-70
2022/11/05 03:09:13;;;;;;;;;;;20.20;69.90;;;;;;5021398;28;1105;-70
2022/11/05 03:11:54;;;;;;;;;;;20.20;69.90;;;;;;5042196;28;888;-71
2022/11/05 03:14:21;;;;;;;;;;;20.20;70.00;;;;;;5041736;28;1898;-70
2022/11/05 03:16:57;;;;;;;;;;;20.20;69.90;;;;;;5040056;28;1347;-70
2022/11/05 03:19:29;;;;;;;;;;;20.20;70.00;;;;;;5040576;28;1053;-70
2022/11/05 03:22:01;;;;;;;;;;;20.20;70.00;;;;;;5021141;28;1054;-70
2022/11/05 03:24:29;;;;;;;;;;;20.20;69.90;;;;;;5020341;28;878;-70
2022/11/05 03:27:05;;;;;;;;;;;20.20;69.90;;;;;;5020164;28;1230;-70
2022/11/05 03:29:32;;;;;;;;;;;20.20;69.90;;;;;;5042078;28;851;-70
2022/11/05 03:31:58;;;;;;;;;;;20.20;69.90;;;;;;5023314;28;1062;-70
2022/11/05 03:34:25;;;;;;;;;;;20.20;70.00;;;;;;5044432;28;1967;-70
2022/11/05 03:36:51;;;;;;;;;;;20.20;69.90;;;;;;5020849;28;1353;-70
2022/11/05 03:39:17;;;;;;;;;;;20.20;70.00;;;;;;5020959;28;867;-70
2022/11/05 03:41:43;;;;;;;;;;;20.20;70.00;;;;;;5023449;28;902;-70
2022/11/05 03:44:09;;;;;;;;;;;20.20;70.00;;;;;;5021625;28;856;-69
2022/11/05 03:46:36;;;;;;;;;;;20.20;70.00;;;;;;5018959;28;1808;-70
2022/11/05 03:49:02;;;;;;;;;;;20.20;70.00;;;;;;5036779;28;816;-70
2022/11/05 03:51:48;;;;;;;;;;;20.20;70.00;;;;;;5022901;28;1188;-70
2022/11/05 03:54:13;;;;;;;;;;;20.20;70.00;;;;;;5032649;28;1902;-70
2022/11/05 03:56:40;;;;;;;;;;;20.20;70.00;;;;;;5022418;28;1284;-70
2022/11/05 03:59:06;;;;;;;;;;;20.20;70.00;;;;;;5020601;28;1186;-70
2022/11/05 04:01:31;;;;;;;;;;;20.20;70.00;;;;;;5038140;28;942;-70
2022/11/05 04:03:56;;;;;;;;;;;20.20;70.00;;;;;;5038778;28;779;-70
2022/11/05 04:14:34;;;;;;;;;;;20.20;70.00;;;;;;5037495;28;1963;-70
2022/11/05 04:17:05;;;;;;;;;;;20.20;70.10;;;;;;5042956;28;1263;-71
2022/11/05 04:25:03;;;;;;;;;;;20.20;70.10;;;;;;5039353;28;1283;-70
2022/11/05 04:27:28;;;;;;;;;;;20.20;70.10;;;;;;5039124;28;972;-70
2022/11/05 04:32:37;;;;;;;;;;;20.20;70.10;;;;;;5041264;28;1372;-70
2022/11/05 04:35:03;;;;;;;;;;;20.20;70.10;;;;;;5038306;28;1894;-70
2022/11/05 04:37:28;;;;;;;;;;;20.20;70.10;;;;;;5042563;28;1018;-71
2022/11/05 04:39:54;;;;;;;;;;;20.20;70.10;;;;;;5034508;28;1018;-71
2022/11/05 04:42:19;;;;;;;;;;;20.20;70.10;;;;;;5039966;28;1046;-70
2022/11/05 04:44:45;;;;;;;;;;;20.20;70.10;;;;;;5036851;28;1062;-71
2022/11/05 04:47:10;;;;;;;;;;;20.20;70.10;;;;;;5040540;28;1365;-71
2022/11/05 04:49:35;;;;;;;;;;;20.20;70.10;;;;;;5040448;28;835;-70
2022/11/05 04:52:01;;;;;;;;;;;20.20;70.10;;;;;;5041425;28;799;-71
2022/11/05 04:54:26;;;;;;;;;;;20.20;70.10;;;;;;5037548;28;1955;-70
2022/11/05 04:56:52;;;;;;;;;;;20.20;70.20;;;;;;5036685;28;1692;-70
2022/11/05 04:59:17;;;;;;;;;;;20.20;70.20;;;;;;5034199;28;1030;-71
2022/11/05 05:01:42;;;;;;;;;;;20.20;70.20;;;;;;5039111;28;1019;-70
2022/11/05 05:04:08;;;;;;;;;;;20.20;70.20;;;;;;5039648;28;847;-70
2022/11/05 05:06:33;;;;;;;;;;;20.20;70.20;;;;;;5039299;28;1351;-70
2022/11/05 05:08:59;;;;;;;;;;;20.20;70.20;;;;;;5036441;28;867;-70
2022/11/05 05:11:24;;;;;;;;;;;20.20;70.20;;;;;;5036317;28;848;-69
2022/11/05 05:13:50;;;;;;;;;;;20.20;70.20;;;;;;5038181;28;1957;-70
2022/11/05 05:16:17;;;;;;;;;;;20.20;70.10;;;;;;5036919;28;1363;-70
2022/11/05 05:18:43;;;;;;;;;;;20.20;70.10;;;;;;5034539;28;856;-71
2022/11/05 05:23:53;;;;;;;;;;;20.30;70.00;;;;;;5039202;28;2192;-70
2022/11/05 05:26:18;;;;;;;;;;;20.30;69.90;;;;;;5038257;28;1384;-71
2022/11/05 05:28:44;;;;;;;;;;;20.30;70.60;;;;;;5041202;28;1463;-71
2022/11/05 05:31:09;;;;;;;;;;;20.40;69.80;;;;;;5038699;28;935;-70
2022/11/05 05:33:35;;;;;;;;;;;20.40;69.70;;;;;;5040125;28;1961;-73
2022/11/05 05:36:01;;;;;;;;;;;20.40;69.60;;;;;;5035798;28;1369;-72
2022/11/05 05:38:27;;;;;;;;;;;20.40;69.60;;;;;;5037794;28;895;-71
2022/11/05 05:40:55;;;;;;;;;;;20.40;69.50;;;;;;5039543;28;828;-71
2022/11/05 05:43:21;;;;;;;;;;;20.40;69.40;;;;;;5039581;28;875;-71
2022/11/05 05:45:46;;;;;;;;;;;20.50;69.40;;;;;;5041189;28;1270;-70
2022/11/05 05:48:12;;;;;;;;;;;20.40;69.30;;;;;;5042881;28;1239;-71
2022/11/05 05:50:37;;;;;;;;;;;20.50;69.30;;;;;;5041357;28;1605;-70
2022/11/05 05:53:02;;;;;;;;;;;20.40;69.20;;;;;;5042779;28;934;-72
2022/11/05 05:55:28;;;;;;;;;;;20.50;69.20;;;;;;5038965;28;1973;-72
2022/11/05 05:57:53;;;;;;;;;;;20.50;69.10;;;;;;5045308;28;1010;-72
2022/11/05 06:00:19;;;;;;;;;;;20.50;69.00;;;;;;5040789;28;1014;-71
2022/11/05 06:02:44;;;;;;;;;;;20.50;69.00;;;;;;5026796;28;1019;-71
2022/11/05 06:05:10;;;;;;;;;;;20.50;69.00;;;;;;5041170;28;1248;-73
2022/11/05 06:07:35;;;;;;;;;;;20.50;68.90;;;;;;5039320;28;881;-73
2022/11/05 06:10:01;;;;;;;;;;;20.50;68.90;;;;;;5035751;28;855;-73
2022/11/05 06:12:28;;;;;;;;;;;20.60;69.00;;;;;;5043024;28;824;-72
2022/11/05 06:14:53;;;;;;;;;;;20.70;68.90;;;;;;5022906;28;1897;-72
2022/11/05 06:17:18;;;;;;;;;;;20.80;68.80;;;;;;5042659;28;1256;-71
2022/11/05 06:19:44;;;;;;;;;;;20.80;68.70;;;;;;5042244;28;1054;-70
2022/11/05 06:22:09;;;;;;;;;;;20.90;68.40;;;;;;5037704;28;780;-70
2022/11/05 06:24:35;;;;;;;;;;;21.00;68.20;;;;;;5041336;28;1163;-70
2022/11/05 06:27:00;;;;;;;;;;;21.10;67.90;;;;;;5037975;28;1373;-74
2022/11/05 06:29:26;;;;;;;;;;;21.30;67.60;;;;;;5037582;28;1046;-72
2022/11/05 06:31:51;;;;;;;;;;;21.40;67.40;;;;;;5040915;28;1203;-73
2022/11/05 06:34:16;;;;;;;;;;;21.50;67.10;;;;;;5037500;28;1994;-72
2022/11/05 06:36:42;;;;;;;;;;;21.50;66.80;;;;;;5038688;28;1262;-70
2022/11/05 06:39:11;;;;;;;;;;;21.60;66.60;;;;;;5040085;28;952;-72
2022/11/05 06:41:36;;;;;;;;;;;21.70;66.30;;;;;;5038816;28;1852;-69
2022/11/05 06:44:01;;;;;;;;;;;21.70;66.10;;;;;;5040458;28;1552;-68
2022/11/05 06:46:27;;;;;;;;;;;21.80;65.90;;;;;;5043521;28;1745;-70
2022/11/05 06:48:53;;;;;;;;;;;21.90;65.70;;;;;;5039639;28;797;-71
2022/11/05 06:51:18;;;;;;;;;;;21.90;65.50;;;;;;5037368;28;879;-70
2022/11/05 06:53:44;;;;;;;;;;;22.00;65.40;;;;;;5038775;28;1985;-71
2022/11/05 06:56:10;;;;;;;;;;;22.00;65.20;;;;;;5039318;28;1286;-71
2022/11/05 06:58:35;;;;;;;;;;;22.00;65.10;;;;;;5041057;28;812;-71
2022/11/05 07:01:02;;;;;;;;;;;22.10;65.00;;;;;;5040672;28;1046;-71
2022/11/05 07:03:27;;;;;;;;;;;22.10;64.90;;;;;;5026139;28;875;-71
2022/11/05 07:05:53;;;;;;;;;;;22.10;64.80;;;;;;5043165;28;1362;-71
2022/11/05 07:08:18;;;;;;;;;;;22.10;64.80;;;;;;5041908;28;806;-72
2022/11/05 07:10:43;;;;;;;;;;;22.10;64.80;;;;;;5044121;28;899;-71
2022/11/05 07:13:09;;;;;;;;;;;22.10;64.80;;;;;;5041114;28;877;-71
2022/11/05 07:15:35;;;;;;;;;;;22.10;64.80;;;;;;5038790;28;1918;-73
2022/11/05 07:18:00;;;;;;;;;;;22.10;65.00;;;;;;5036863;28;865;-70
2022/11/05 07:20:26;;;;;;;;;;;22.10;65.00;;;;;;5036810;28;838;-71
2022/11/05 07:22:59;;;;;;;;;;;22.10;65.00;;;;;;5040740;28;910;-72
2022/11/05 07:25:24;;;;;;;;;;;22.10;65.10;;;;;;5039542;28;1292;-72
2022/11/05 07:27:50;;;;;;;;;;;22.10;65.10;;;;;;5038932;28;899;-71
2022/11/05 07:30:15;;;;;;;;;;;22.10;65.20;;;;;;5038854;28;1022;-71
2022/11/05 07:32:41;;;;;;;;;;;22.00;65.10;;;;;;5045956;28;1134;-71
2022/11/05 07:35:06;;;;;;;;;;;22.00;65.20;;;;;;5042417;28;1977;-70
2022/11/05 07:37:32;;;;;;;;;;;22.00;65.20;;;;;;5039231;28;813;-71
2022/11/05 07:39:57;;;;;;;;;;;22.00;65.20;;;;;;5040618;28;874;-70
2022/11/05 07:42:23;;;;;;;;;;;21.90;65.30;;;;;;5048099;28;1333;-71
2022/11/05 07:44:48;;;;;;;;;;;22.00;65.40;;;;;;5037371;28;948;-71
2022/11/05 07:47:14;;;;;;;;;;;22.00;65.40;;;;;;5034804;28;1335;-71
2022/11/05 07:49:39;;;;;;;;;;;22.00;65.60;;;;;;5040820;28;796;-71
2022/11/05 07:52:04;;;;;;;;;;;21.90;65.60;;;;;;5033244;28;4406;-73
2022/11/05 07:54:30;;;;;;;;;;;21.90;65.60;;;;;;5039659;28;1915;-70
2022/11/05 07:56:55;;;;;;;;;;;21.90;65.70;;;;;;5040055;28;1275;-70
2022/11/05 07:59:21;;;;;;;;;;;22.00;65.80;;;;;;5039967;28;2122;-70
2022/11/05 08:01:46;;;;;;;;;;;22.00;65.80;;;;;;5040893;28;1858;-70
2022/11/05 08:04:12;;;;;;;;;;;22.00;65.80;;;;;;5043867;28;1339;-70
2022/11/05 08:06:37;;;;;;;;;;;22.00;65.90;;;;;;5041195;28;1404;-70
2022/11/05 08:09:02;;;;;;;;;;;22.00;66.40;;;;;;5054887;28;1376;-70
2022/11/05 08:11:28;;;;;;;;;;;22.00;66.50;;;;;;5039006;28;1283;-70
2022/11/05 08:13:53;;;;;;;;;;;22.10;66.40;;;;;;5057224;28;1934;-71
2022/11/05 08:16:19;;;;;;;;;;;22.10;66.30;;;;;;5041421;28;1310;-71
2022/11/05 08:18:44;;;;;;;;;;;22.10;66.30;;;;;;5039962;28;1009;-70
2022/11/05 08:21:10;;;;;;;;;;;22.10;66.30;;;;;;5042024;28;1543;-71
2022/11/05 08:23:35;;;;;;;;;;;22.10;66.40;;;;;;5038411;28;1033;-70
2022/11/05 08:26:01;;;;;;;;;;;22.10;66.50;;;;;;5039108;28;1411;-70
2022/11/05 08:28:26;;;;;;;;;;;22.10;66.60;;;;;;5023915;28;833;-70
2022/11/05 08:30:52;;;;;;;;;;;22.10;66.70;;;;;;5038852;28;890;-68
2022/11/05 08:33:19;;;;;;;;;;;22.10;66.80;;;;;;5022050;28;1375;-68
2022/11/05 08:35:45;;;;;;;;;;;22.10;66.80;;;;;;5036188;28;2001;-68
2022/11/05 08:38:12;;;;;;;;;;;22.10;67.70;;;;;;5028825;28;4040;-70
2022/11/05 08:40:38;;;;;;;;;;;22.10;67.00;;;;;;5040765;28;808;-71
2022/11/05 08:43:03;;;;;;;;;;;22.10;67.10;;;;;;5038778;28;923;-70
2022/11/05 08:45:29;;;;;;;;;;;22.10;67.20;;;;;;5038977;28;1280;-70
2022/11/05 08:48:15;;;;;;;;;;;22.10;67.30;;;;;;5037174;28;1273;-70
2022/11/05 08:50:40;;;;;;;;;;;22.10;67.40;;;;;;5052867;28;1362;-68
2022/11/05 08:53:06;;;;;;;;;;;22.10;67.50;;;;;;5038769;28;847;-69
2022/11/05 08:55:31;;;;;;;;;;;22.00;67.60;;;;;;5036392;28;1914;-69
2022/11/05 08:57:57;;;;;;;;;;;22.00;67.60;;;;;;5039124;28;1255;-68
2022/11/05 09:00:23;;;;;;;;;;;22.00;67.90;;;;;;5021141;28;907;-68
2022/11/05 09:02:49;;;;;;;;;;;22.00;68.30;;;;;;5040924;28;1521;-68
2022/11/05 09:05:14;;;;;;;;;;;22.00;68.30;;;;;;5037442;28;1283;-68
2022/11/05 09:07:39;;;;;;;;;;;22.00;68.40;;;;;;5040395;28;1084;-69
2022/11/05 09:10:05;;;;;;;;;;;22.00;68.40;;;;;;5037875;28;1449;-68
2022/11/05 09:12:30;;;;;;;;;;;21.90;68.40;;;;;;5041309;28;871;-68
2022/11/05 09:14:56;;;;;;;;;;;22.00;68.50;;;;;;5039247;28;1906;-71
2022/11/05 09:17:21;;;;;;;;;;;22.00;68.60;;;;;;5037141;28;1234;-68
2022/11/05 09:19:47;;;;;;;;;;;22.00;68.70;;;;;;5037850;28;930;-69
2022/11/05 09:22:12;;;;;;;;;;;21.90;68.60;;;;;;5036849;28;960;-69
2022/11/05 09:24:38;;;;;;;;;;;21.90;69.00;;;;;;5038329;28;838;-69
2022/11/05 09:27:04;;;;;;;;;;;21.90;69.10;;;;;;5040752;28;1355;-71
2022/11/05 09:29:29;;;;;;;;;;;21.90;69.20;;;;;;5038810;28;1026;-71
2022/11/05 09:31:55;;;;;;;;;;;21.90;69.10;;;;;;5040126;28;1355;-68
2022/11/05 09:34:20;;;;;;;;;;;21.90;69.20;;;;;;5037502;28;1969;-72
2022/11/05 09:36:46;;;;;;;;;;;21.90;69.20;;;;;;5038542;28;1270;-71
2022/11/05 09:39:11;;;;;;;;;;;21.90;69.20;;;;;;5039855;28;899;-71
2022/11/05 09:41:37;;;;;;;;;;;21.90;69.30;;;;;;5035458;28;945;-69
2022/11/05 09:44:04;;;;;;;;;;;21.90;69.30;;;;;;5018908;28;1082;-69
2022/11/05 09:46:37;;;;;;;;;;;21.90;69.30;;;;;;5023494;28;1353;-69
2022/11/05 09:49:03;;;;;;;;;;;21.90;69.40;;;;;;5018741;28;854;-68
2022/11/05 09:51:29;;;;;;;;;;;21.90;69.60;;;;;;5019661;28;798;-68
2022/11/05 09:53:55;;;;;;;;;;;21.90;69.60;;;;;;5017505;28;1949;-69
2022/11/05 09:56:31;;;;;;;;;;;21.90;69.60;;;;;;5036609;28;1352;-70
2022/11/05 09:59:16;;;;;;;;;;;21.90;69.70;;;;;;5021567;28;1311;-69
2022/11/05 10:01:42;;;;;;;;;;;21.90;69.70;;;;;;5020955;28;1482;-70
2022/11/05 10:04:13;;;;;;;;;;;21.90;69.80;;;;;;5041245;28;868;-69
2022/11/05 10:06:41;;;;;;;;;;;21.90;70.40;;;;;;5036395;28;1271;-68
2022/11/05 10:09:15;;;;;;;;;;;21.80;69.70;;;;;;5021711;28;919;-67
2022/11/05 10:11:43;;;;;;;;;;;21.90;69.80;;;;;;5038432;28;903;-68
2022/11/05 10:14:27;;;;;;;;;;;21.90;69.80;;;;;;5033861;28;1898;-68
2022/11/05 10:16:57;;;;;;;;;;;21.80;69.80;;;;;;5038047;28;1278;-68
2022/11/05 10:19:24;;;;;;;;;;;21.80;69.80;;;;;;5020895;28;864;-68
2022/11/05 10:21:52;;;;;;;;;;;21.80;69.90;;;;;;5021635;28;863;-67
2022/11/05 10:24:18;;;;;;;;;;;21.80;69.90;;;;;;5037830;28;959;-68
2022/11/05 10:26:45;;;;;;;;;;;21.80;70.00;;;;;;5017267;28;1276;-68
2022/11/05 10:29:11;;;;;;;;;;;21.80;70.10;;;;;;5021904;28;822;-69
2022/11/05 10:31:37;;;;;;;;;;;21.80;70.20;;;;;;5019701;28;1381;-69
2022/11/05 10:34:03;;;;;;;;;;;21.80;70.30;;;;;;5039821;28;1890;-68
2022/11/05 10:36:33;;;;;;;;;;;21.80;70.40;;;;;;5022162;28;1344;-68
2022/11/05 10:38:59;;;;;;;;;;;21.80;70.60;;;;;;5023277;28;850;-68
2022/11/05 10:41:27;;;;;;;;;;;21.80;70.70;;;;;;5023731;28;1038;-68
2022/11/05 10:43:56;;;;;;;;;;;21.80;70.80;;;;;;5023914;28;964;-71
2022/11/05 10:46:27;;;;;;;;;;;21.80;70.90;;;;;;5042761;28;1339;-71
2022/11/05 10:48:55;;;;;;;;;;;21.70;70.90;;;;;;5043243;28;896;-70
2022/11/05 10:51:20;;;;;;;;;;;21.70;70.90;;;;;;5040100;28;1034;-69
2022/11/05 10:53:49;;;;;;;;;;;21.70;71.60;;;;;;5040183;28;1909;-70
2022/11/05 10:56:44;;;;;;;;;;;21.70;71.80;;;;;;5025387;28;1320;-70
2022/11/05 10:59:22;;;;;;;;;;;21.70;71.40;;;;;;5024722;28;1284;-71
2022/11/05 11:01:58;;;;;;;;;;;21.70;71.40;;;;;;5023562;28;790;-71
2022/11/05 11:04:24;;;;;;;;;;;21.70;71.50;;;;;;5020500;28;943;-70
2022/11/05 11:06:51;;;;;;;;;;;21.70;71.90;;;;;;5023353;28;1302;-70
2022/11/05 11:09:18;;;;;;;;;;;21.70;72.00;;;;;;5024547;28;1121;-71
2022/11/05 11:11:44;;;;;;;;;;;21.70;71.70;;;;;;5040731;28;871;-70
2022/11/05 11:14:12;;;;;;;;;;;21.70;71.70;;;;;;5039815;28;1909;-70
2022/11/05 11:16:39;;;;;;;;;;;21.70;71.70;;;;;;5040543;28;1329;-69
2022/11/05 11:19:19;;;;;;;;;;;21.70;71.60;;;;;;5022218;28;895;-70
2022/11/05 11:21:45;;;;;;;;;;;21.60;71.60;;;;;;5021390;28;1018;-69
2022/11/05 11:24:17;;;;;;;;;;;21.70;72.00;;;;;;5038637;28;1859;-69
2022/11/05 11:26:43;;;;;;;;;;;21.60;72.00;;;;;;5022737;28;1324;-69
2022/11/05 11:29:14;;;;;;;;;;;21.60;71.80;;;;;;5039746;28;1647;-69
2022/11/05 11:31:40;;;;;;;;;;;21.60;71.70;;;;;;5037313;28;1375;-69
2022/11/05 11:34:06;;;;;;;;;;;21.60;71.90;;;;;;5026927;28;1963;-69
2022/11/05 11:36:44;;;;;;;;;;;21.60;72.20;;;;;;5022153;28;1308;-69
2022/11/05 11:39:13;;;;;;;;;;;21.60;72.20;;;;;;5039403;28;977;-69
2022/11/05 11:41:40;;;;;;;;;;;21.60;72.30;;;;;;5021598;28;927;-69
2022/11/05 11:44:08;;;;;;;;;;;21.60;72.20;;;;;;5040761;28;852;-69
2022/11/05 11:46:34;;;;;;;;;;;21.60;72.00;;;;;;5034542;28;1278;-69
2022/11/05 11:48:59;;;;;;;;;;;21.60;72.00;;;;;;5039245;28;836;-69
2022/11/05 11:51:29;;;;;;;;;;;21.60;71.90;;;;;;5049103;28;886;-69
2022/11/05 11:53:55;;;;;;;;;;;21.60;72.10;;;;;;5029458;28;1910;-68
2022/11/05 11:56:20;;;;;;;;;;;21.50;72.00;;;;;;5031696;28;1247;-69
2022/11/05 11:58:50;;;;;;;;;;;21.60;71.80;;;;;;5022888;28;1292;-68
2022/11/05 12:01:18;;;;;;;;;;;21.50;71.60;;;;;;5020914;28;856;-68
2022/11/05 12:03:48;;;;;;;;;;;21.50;71.60;;;;;;5038942;28;871;-68
2022/11/05 12:06:19;;;;;;;;;;;21.50;72.10;;;;;;5029566;28;1835;-68
2022/11/05 12:08:48;;;;;;;;;;;21.50;72.00;;;;;;5042428;28;1393;-70
2022/11/05 12:11:26;;;;;;;;;;;21.50;72.00;;;;;;5041999;28;1361;-70
2022/11/05 12:13:59;;;;;;;;;;;21.50;72.00;;;;;;5031843;28;1967;-71
2022/11/05 12:16:24;;;;;;;;;;;21.50;72.20;;;;;;5019425;28;1292;-70
2022/11/05 12:18:59;;;;;;;;;;;21.50;72.30;;;;;;5039584;28;1017;-70
2022/11/05 12:21:30;;;;;;;;;;;21.50;72.30;;;;;;5040611;28;822;-70
2022/11/05 12:24:14;;;;;;;;;;;21.50;72.40;;;;;;5038561;28;820;-71
2022/11/05 12:26:42;;;;;;;;;;;21.50;72.40;;;;;;5037886;28;1257;-70
2022/11/05 12:29:30;;;;;;;;;;;21.50;72.40;;;;;;5038073;28;950;-70
2022/11/05 12:32:00;;;;;;;;;;;21.50;72.40;;;;;;5036067;28;1505;-70
2022/11/05 12:34:53;;;;;;;;;;;21.50;72.30;;;;;;5039054;28;1906;-70
2022/11/05 12:37:40;;;;;;;;;;;21.60;72.30;;;;;;5037416;28;1312;-70
2022/11/05 12:40:13;;;;;;;;;;;21.50;72.00;;;;;;5029014;28;891;-71
2022/11/05 12:42:57;;;;;;;;;;;21.50;72.00;;;;;;5020071;28;834;-73
2022/11/05 12:45:26;;;;;;;;;;;21.50;72.00;;;;;;5037647;28;1371;-70
2022/11/05 12:48:05;;;;;;;;;;;21.50;71.80;;;;;;5040031;28;866;-70
2022/11/05 12:50:34;;;;;;;;;;;21.50;71.90;;;;;;5022948;28;958;-71
2022/11/05 12:53:20;;;;;;;;;;;21.50;71.90;;;;;;5020780;28;1081;-70
2022/11/05 12:55:48;;;;;;;;;;;21.50;72.10;;;;;;5010614;28;1898;-69
2022/11/05 12:58:24;;;;;;;;;;;21.40;72.20;;;;;;5039252;28;887;-69
2022/11/05 13:00:51;;;;;;;;;;;21.40;72.20;;;;;;5021414;28;1422;-69
2022/11/05 13:03:27;;;;;;;;;;;21.40;72.30;;;;;;5024908;28;1371;-69
2022/11/05 13:05:54;;;;;;;;;;;21.40;72.50;;;;;;5018857;28;1376;-69
2022/11/05 13:08:31;;;;;;;;;;;21.40;71.80;;;;;;5039850;28;875;-69
2022/11/05 13:10:58;;;;;;;;;;;21.40;68.80;;;;;;5019020;28;811;-69
2022/11/05 13:13:29;;;;;;;;;;;21.40;67.70;;;;;;5018827;28;971;-69
2022/11/05 13:16:15;;;;;;;;;;;21.30;65.80;;;;;;5023890;28;1894;-69
2022/11/05 13:18:43;;;;;;;;;;;21.20;65.80;;;;;;5021694;28;2368;-69
2022/11/05 13:21:08;;;;;;;;;;;21.20;64.10;;;;;;5022397;28;1960;-69
2022/11/05 13:23:36;;;;;;;;;;;21.20;63.30;;;;;;5038563;28;1779;-69
2022/11/05 13:26:04;;;;;;;;;;;21.10;62.50;;;;;;5036363;28;1752;-69
2022/11/05 13:28:30;;;;;;;;;;;21.00;61.80;;;;;;5040257;28;980;-70
2022/11/05 13:30:57;;;;;;;;;;;21.00;61.60;;;;;;5042450;28;1441;-69
2022/11/05 13:33:23;;;;;;;;;;;21.00;61.20;;;;;;5036710;28;1566;-69
2022/11/05 13:38:57;;;;;;;;;;;21.00;60.80;;;;;;5022335;28;1898;-69
2022/11/05 13:41:40;;;;;;;;;;;20.90;60.50;;;;;;5025703;28;1129;-70
2022/11/05 13:44:24;;;;;;;;;;;20.90;61.10;;;;;;5039581;28;829;-69
2022/11/05 13:47:12;;;;;;;;;;;20.80;59.80;;;;;;5035952;28;1285;-69
2022/11/05 13:49:42;;;;;;;;;;;20.80;60.30;;;;;;5018351;28;1514;-69
2022/11/05 13:52:27;;;;;;;;;;;20.80;59.50;;;;;;5018515;28;825;-69
2022/11/05 13:54:56;;;;;;;;;;;20.80;59.20;;;;;;5034788;28;1918;-69
2022/11/05 13:57:41;;;;;;;;;;;20.80;59.40;;;;;;5038094;28;1260;-69
2022/11/05 14:00:16;;;;;;;;;;;20.80;59.20;;;;;;5018427;28;1089;-69
2022/11/05 14:02:42;;;;;;;;;;;20.70;59.00;;;;;;5052839;28;1305;-68
2022/11/05 14:05:18;;;;;;;;;;;20.70;58.90;;;;;;5037857;28;1727;-68
2022/11/05 14:07:44;;;;;;;;;;;20.70;59.00;;;;;;5036337;28;891;-69
2022/11/05 14:10:29;;;;;;;;;;;20.70;58.90;;;;;;5044760;28;862;-69
2022/11/05 14:12:54;;;;;;;;;;;20.60;58.70;;;;;;5026729;28;1280;-69
2022/11/05 14:15:21;;;;;;;;;;;20.60;58.60;;;;;;5043887;28;1969;-69
2022/11/05 14:17:56;;;;;;;;;;;20.60;58.20;;;;;;5041072;28;770;-69
2022/11/05 14:20:30;;;;;;;;;;;20.60;58.60;;;;;;5057891;28;1262;-69
2022/11/05 14:23:19;;;;;;;;;;;20.60;58.30;;;;;;5055085;28;1076;-69
2022/11/05 14:25:44;;;;;;;;;;;20.60;58.10;;;;;;5039216;28;1488;-68
2022/11/05 14:28:28;;;;;;;;;;;20.60;58.30;;;;;;5058146;28;1183;-68
2022/11/05 14:30:54;;;;;;;;;;;20.60;58.30;;;;;;5042028;28;2184;-68
2022/11/05 14:33:25;;;;;;;;;;;20.50;58.00;;;;;;5042140;28;1972;-68
2022/11/05 14:36:11;;;;;;;;;;;20.50;58.10;;;;;;5040213;28;1967;-68
2022/11/05 14:38:36;;;;;;;;;;;20.50;57.90;;;;;;5022186;28;1587;-69
2022/11/05 14:41:02;;;;;;;;;;;20.50;58.60;;;;;;5040492;28;1550;-70
2022/11/05 14:43:28;;;;;;;;;;;20.50;58.10;;;;;;5042951;28;1070;-69
2022/11/05 14:46:00;;;;;;;;;;;20.50;57.50;;;;;;5037762;28;1273;-70
2022/11/05 14:48:37;;;;;;;;;;;20.50;57.00;;;;;;5041395;28;1687;-70
2022/11/05 14:51:17;;;;;;;;;;;20.50;57.70;;;;;;5032508;28;1575;-70
2022/11/05 14:53:42;;;;;;;;;;;20.50;57.80;;;;;;5024894;28;1454;-69
2022/11/05 14:56:08;;;;;;;;;;;20.50;57.90;;;;;;5041189;28;1906;-70
2022/11/05 14:58:35;;;;;;;;;;;20.40;57.70;;;;;;5027313;28;896;-70
2022/11/05 15:01:01;;;;;;;;;;;20.40;57.90;;;;;;5021790;28;1102;-70
2022/11/05 15:03:27;;;;;;;;;;;20.40;58.00;;;;;;5041425;28;1329;-69
2022/11/05 15:06:01;;;;;;;;;;;20.40;57.80;;;;;;5038915;28;1319;-69
2022/11/05 15:08:27;;;;;;;;;;;20.40;57.80;;;;;;5023670;28;962;-69
2022/11/05 15:10:52;;;;;;;;;;;20.40;57.70;;;;;;5041463;28;891;-69
2022/11/05 15:13:32;;;;;;;;;;;20.40;57.60;;;;;;5039979;28;875;-69
2022/11/05 15:15:58;;;;;;;;;;;20.40;57.10;;;;;;5026608;28;2035;-70
2022/11/05 15:18:26;;;;;;;;;;;20.30;56.50;;;;;;5040290;28;1159;-69
2022/11/05 15:20:52;;;;;;;;;;;20.30;56.40;;;;;;5040525;28;891;-68
2022/11/05 15:23:19;;;;;;;;;;;20.30;56.90;;;;;;5036458;28;812;-69
2022/11/05 15:25:51;;;;;;;;;;;20.30;57.80;;;;;;5023198;28;1350;-68
2022/11/05 15:28:19;;;;;;;;;;;20.30;57.20;;;;;;5039935;28;875;-68